sensor_id;sensor_type;location;lat;lon;timestamp;pressure;altitude;pressure_sealevel;temperature;humidity
2192;BME280;1102;49.718;11.902;2023-03-26T00:01:13;95592.41;;;5.89;100.00
2192;BME280;1102;49.718;11.902;2023-03-26T00:03:42;95572.41;;;5.76;100.00
2192;BME280;1102;49.718;11.902;2023-03-26T00:06:14;95597.03;;;5.83;100.00
2192;BME280;1102;49.718;11.902;2023-03-26T00:08:54;95534.03;;;5.54;100.00
2192;BME280;1102;49.718;11.902;2023-03-26T00:11:28;95572.81;;;5.86;100.00
2192;BME280;1102;49.718;11.902;2023-03-26T00:13:55;95579.00;;;5.90;100.00
2192;BME280;1102;49.718;11.902;2023-03-26T00:16:26;95523.69;;;5.57;100.00
2192;BME280;1102;49.718;11.902;2023-03-26T00:18:53;95561.13;;;5.75;100.00
2192;BME280;1102;49.718;11.902;2023-03-26T00:21:22;95582.53;;;5.86;100.00
2192;BME280;1102;49.718;11.902;2023-03-26T00:23:55;95575.28;;;5.83;100.00
2192;BME280;1102;49.718;11.902;2023-03-26T00:26:25;95584.25;;;5.82;100.00
2192;BME280;1102;49.718;11.902;2023-03-26T00:28:52;95550.84;;;5.61;100.00
2192;BME280;1102;49.718;11.902;2023-03-26T00:31:20;95523.91;;;5.44;100.00
2192;BME280;1102;49.718;11.902;2023-03-26T00:33:49;95546.97;;;5.59;100.00
2192;BME280;1102;49.718;11.902;2023-03-26T00:36:22;95505.09;;;5.33;100.00
2192;BME280;1102;49.718;11.902;2023-03-26T00:38:51;95563.91;;;5.70;100.00
2192;BME280;1102;49.718;11.902;2023-03-26T00:41:21;95526.38;;;5.49;100.00
2192;BME280;1102;49.718;11.902;2023-03-26T00:43:55;95572.53;;;5.79;100.00
2192;BME280;1102;49.718;11.902;2023-03-26T00:46:24;95490.31;;;5.28;100.00
2192;BME280;1102;49.718;11.902;2023-03-26T00:48:51;95540.97;;;5.58;100.00
2192;BME280;1102;49.718;11.902;2023-03-26T00:51:19;95572.22;;;5.81;100.00
2192;BME280;1102;49.718;11.902;2023-03-26T00:53:48;95532.19;;;5.54;100.00
2192;BME280;1102;49.718;11.902;2023-03-26T00:56:16;95568.81;;;5.80;100.00
2192;BME280;1102;49.718;11.902;2023-03-26T00:58:43;95577.00;;;5.79;100.00
2192;BME280;1102;49.718;11.902;2023-03-26T01:01:16;95581.81;;;5.77;100.00
2192;BME280;1102;49.718;11.902;2023-03-26T01:03:44;95562.38;;;5.69;100.00
2192;BME280;1102;49.718;11.902;2023-03-26T01:06:32;95525.59;;;5.48;100.00
2192;BME280;1102;49.718;11.902;2023-03-26T01:09:16;95571.91;;;5.74;100.00
2192;BME280;1102;49.718;11.902;2023-03-26T01:11:45;95568.25;;;5.75;100.00
2192;BME280;1102;49.718;11.902;2023-03-26T01:14:19;95569.78;;;5.76;100.00
2192;BME280;1102;49.718;11.902;2023-03-26T01:16:53;95559.47;;;5.62;100.00
2192;BME280;1102;49.718;11.902;2023-03-26T01:19:32;95567.44;;;5.74;100.00
2192;BME280;1102;49.718;11.902;2023-03-26T01:22:05;95574.25;;;5.75;100.00
2192;BME280;1102;49.718;11.902;2023-03-26T01:24:38;95571.91;;;5.74;100.00
2192;BME280;1102;49.718;11.902;2023-03-26T01:32:40;95573.00;;;5.73;100.00
2192;BME280;1102;49.718;11.902;2023-03-26T01:35:27;95543.91;;;5.57;100.00
2192;BME280;1102;49.718;11.902;2023-03-26T01:40:47;95568.25;;;5.75;100.00
2192;BME280;1102;49.718;11.902;2023-03-26T01:45:48;95534.03;;;5.54;100.00
2192;BME280;1102;49.718;11.902;2023-03-26T01:48:15;95511.41;;;5.41;100.00
2192;BME280;1102;49.718;11.902;2023-03-26T01:50:43;95556.34;;;5.77;100.00
2192;BME280;1102;49.718;11.902;2023-03-26T01:53:11;95531.09;;;5.64;100.00
2192;BME280;1102;49.718;11.902;2023-03-26T01:58:30;95528.63;;;5.59;100.00
2192;BME280;1102;49.718;11.902;2023-03-26T02:01:13;95545.41;;;5.75;100.00
2192;BME280;1102;49.718;11.902;2023-03-26T02:04:00;95554.81;;;5.76;100.00
2192;BME280;1102;49.718;11.902;2023-03-26T02:09:06;95547.88;;;5.72;100.00
2192;BME280;1102;49.718;11.902;2023-03-26T02:11:36;95545.56;;;5.70;100.00
2192;BME280;1102;49.718;11.902;2023-03-26T02:14:04;95536.03;;;5.57;100.00
2192;BME280;1102;49.718;11.902;2023-03-26T02:16:32;95543.88;;;5.66;100.00
2192;BME280;1102;49.718;11.902;2023-03-26T02:18:59;95538.78;;;5.60;100.00
2192;BME280;1102;49.718;11.902;2023-03-26T02:21:27;95504.34;;;5.32;100.00
2192;BME280;1102;49.718;11.902;2023-03-26T02:23:56;95522.03;;;5.44;100.00
2192;BME280;1102;49.718;11.902;2023-03-26T02:26:34;95524.22;;;5.42;100.00
2192;BME280;1102;49.718;11.902;2023-03-26T02:29:10;95513.59;;;5.39;100.00
2192;BME280;1102;49.718;11.902;2023-03-26T02:31:40;95482.03;;;5.18;100.00
2192;BME280;1102;49.718;11.902;2023-03-26T02:34:06;95486.34;;;5.22;100.00
2192;BME280;1102;49.718;11.902;2023-03-26T02:36:36;95514.22;;;5.36;100.00
2192;BME280;1102;49.718;11.902;2023-03-26T02:39:03;95539.47;;;5.49;100.00
2192;BME280;1102;49.718;11.902;2023-03-26T02:41:34;95494.81;;;5.19;100.00
2192;BME280;1102;49.718;11.902;2023-03-26T02:44:05;95509.56;;;5.32;100.00
2192;BME280;1102;49.718;11.902;2023-03-26T02:46:52;95506.06;;;5.28;100.00
2192;BME280;1102;49.718;11.902;2023-03-26T02:49:39;95521.91;;;5.41;100.00
2192;BME280;1102;49.718;11.902;2023-03-26T02:52:06;95530.34;;;5.46;100.00
2192;BME280;1102;49.718;11.902;2023-03-26T02:54:34;95528.50;;;5.47;100.00
2192;BME280;1102;49.718;11.902;2023-03-26T02:57:07;95503.72;;;5.36;100.00
2192;BME280;1102;49.718;11.902;2023-03-26T02:59:53;95511.72;;;5.39;100.00
2192;BME280;1102;49.718;11.902;2023-03-26T03:02:49;95482.19;;;5.21;100.00
2192;BME280;1102;49.718;11.902;2023-03-26T03:05:18;95489.09;;;5.26;100.00
2192;BME280;1102;49.718;11.902;2023-03-26T03:07:51;95450.63;;;5.00;100.00
2192;BME280;1102;49.718;11.902;2023-03-26T03:10:26;95512.06;;;5.38;100.00
2192;BME280;1102;49.718;11.902;2023-03-26T03:13:07;95494.16;;;5.31;100.00
2192;BME280;1102;49.718;11.902;2023-03-26T03:15:35;95466.03;;;5.11;100.00
2192;BME280;1102;49.718;11.902;2023-03-26T03:18:02;95499.09;;;5.32;100.00
2192;BME280;1102;49.718;11.902;2023-03-26T03:20:31;95499.88;;;5.33;100.00
2192;BME280;1102;49.718;11.902;2023-03-26T03:23:00;95468.97;;;5.09;100.00
2192;BME280;1102;49.718;11.902;2023-03-26T03:25:28;95479.41;;;5.18;100.00
2192;BME280;1102;49.718;11.902;2023-03-26T03:27:55;95482.66;;;5.23;100.00
2192;BME280;1102;49.718;11.902;2023-03-26T03:30:22;95489.88;;;5.26;100.00
2192;BME280;1102;49.718;11.902;2023-03-26T03:33:11;95483.09;;;5.25;100.00
2192;BME280;1102;49.718;11.902;2023-03-26T03:35:38;95476.31;;;5.24;100.00
2192;BME280;1102;49.718;11.902;2023-03-26T03:38:07;95480.16;;;5.27;100.00
2192;BME280;1102;49.718;11.902;2023-03-26T03:40:43;95521.72;;;5.46;100.00
2192;BME280;1102;49.718;11.902;2023-03-26T03:43:10;95505.41;;;5.40;100.00
2192;BME280;1102;49.718;11.902;2023-03-26T03:45:46;95479.25;;;5.23;100.00
2192;BME280;1102;49.718;11.902;2023-03-26T03:48:33;95471.22;;;5.19;100.00
2192;BME280;1102;49.718;11.902;2023-03-26T03:51:05;95465.22;;;5.19;100.00
2192;BME280;1102;49.718;11.902;2023-03-26T03:54:00;95478.00;;;5.29;100.00
2192;BME280;1102;49.718;11.902;2023-03-26T03:56:50;95487.25;;;5.26;100.00
2192;BME280;1102;49.718;11.902;2023-03-26T03:59:37;95481.56;;;5.24;100.00
2192;BME280;1102;49.718;11.902;2023-03-26T04:02:13;95514.03;;;5.41;100.00
2192;BME280;1102;49.718;11.902;2023-03-26T04:04:47;95487.13;;;5.23;100.00
2192;BME280;1102;49.718;11.902;2023-03-26T04:07:18;95509.88;;;5.40;100.00
2192;BME280;1102;49.718;11.902;2023-03-26T04:10:04;95480.03;;;5.23;100.00
2192;BME280;1102;49.718;11.902;2023-03-26T04:13:06;95493.41;;;5.30;100.00
2192;BME280;1102;49.718;11.902;2023-03-26T04:15:56;95476.78;;;5.18;100.00
2192;BME280;1102;49.718;11.902;2023-03-26T04:18:23;95426.78;;;4.85;100.00
2192;BME280;1102;49.718;11.902;2023-03-26T04:20:52;95490.06;;;5.21;100.00
2192;BME280;1102;49.718;11.902;2023-03-26T04:23:25;95463.09;;;5.03;100.00
2192;BME280;1102;49.718;11.902;2023-03-26T04:26:01;95490.97;;;5.25;100.00
2192;BME280;1102;49.718;11.902;2023-03-26T04:28:55;95461.25;;;5.04;100.00
2192;BME280;1102;49.718;11.902;2023-03-26T04:31:28;95478.50;;;5.14;100.00
2192;BME280;1102;49.718;11.902;2023-03-26T04:34:09;95488.22;;;5.13;100.00
2192;BME280;1102;49.718;11.902;2023-03-26T04:36:50;95488.22;;;5.13;100.00
2192;BME280;1102;49.718;11.902;2023-03-26T04:39:23;95475.56;;;5.07;100.00
2192;BME280;1102;49.718;11.902;2023-03-26T04:42:13;95460.22;;;4.88;100.00
2192;BME280;1102;49.718;11.902;2023-03-26T04:44:55;95476.84;;;4.92;100.00
2192;BME280;1102;49.718;11.902;2023-03-26T04:47:21;95475.78;;;4.84;100.00
2192;BME280;1102;49.718;11.902;2023-03-26T04:49:49;95457.16;;;4.68;100.00
2192;BME280;1102;49.718;11.902;2023-03-26T04:52:16;95443.59;;;4.66;100.00
2192;BME280;1102;49.718;11.902;2023-03-26T04:54:55;95471.63;;;4.74;100.00
2192;BME280;1102;49.718;11.902;2023-03-26T04:57:31;95493.13;;;5.06;100.00
2192;BME280;1102;49.718;11.902;2023-03-26T05:00:05;95465.31;;;4.84;100.00
2192;BME280;1102;49.718;11.902;2023-03-26T05:02:45;95429.72;;;4.66;100.00
2192;BME280;1102;49.718;11.902;2023-03-26T05:05:16;95484.69;;;4.92;100.00
2192;BME280;1102;49.718;11.902;2023-03-26T05:07:43;95487.75;;;5.02;100.00
2192;BME280;1102;49.718;11.902;2023-03-26T05:10:15;95497.00;;;5.09;100.00
2192;BME280;1102;49.718;11.902;2023-03-26T05:12:48;95493.91;;;5.07;100.00
2192;BME280;1102;49.718;11.902;2023-03-26T05:15:24;95449.91;;;4.83;100.00
2192;BME280;1102;49.718;11.902;2023-03-26T05:18:29;95445.75;;;4.82;100.00
2192;BME280;1102;49.718;11.902;2023-03-26T05:20:58;95474.22;;;5.00;100.00
2192;BME280;1102;49.718;11.902;2023-03-26T05:23:26;95418.50;;;4.65;100.00
2192;BME280;1102;49.718;11.902;2023-03-26T05:26:08;95472.94;;;5.07;100.00
2192;BME280;1102;49.718;11.902;2023-03-26T05:28:35;95456.06;;;4.87;100.00
2192;BME280;1102;49.718;11.902;2023-03-26T05:31:13;95435.59;;;4.71;100.00
2192;BME280;1102;49.718;11.902;2023-03-26T05:33:46;95438.06;;;4.59;100.00
2192;BME280;1102;49.718;11.902;2023-03-26T05:36:14;95475.31;;;4.73;100.00
2192;BME280;1102;49.718;11.902;2023-03-26T05:38:46;95434.38;;;4.52;100.00
2192;BME280;1102;49.718;11.902;2023-03-26T05:41:35;95431.44;;;4.62;100.00
2192;BME280;1102;49.718;11.902;2023-03-26T05:44:01;95438.53;;;4.35;100.00
2192;BME280;1102;49.718;11.902;2023-03-26T05:46:29;95459.91;;;4.63;100.00
2192;BME280;1102;49.718;11.902;2023-03-26T05:48:56;95437.16;;;4.47;100.00
2192;BME280;1102;49.718;11.902;2023-03-26T05:51:23;95442.97;;;4.52;100.00
2192;BME280;1102;49.718;11.902;2023-03-26T05:54:00;95443.75;;;4.35;100.00
2192;BME280;1102;49.718;11.902;2023-03-26T05:57:02;95426.22;;;4.27;100.00
2192;BME280;1102;49.718;11.902;2023-03-26T05:59:48;95437.16;;;4.47;100.00
2192;BME280;1102;49.718;11.902;2023-03-26T06:02:34;95448.53;;;4.68;100.00
2192;BME280;1102;49.718;11.902;2023-03-26T06:05:19;95417.75;;;4.56;100.00
2192;BME280;1102;49.718;11.902;2023-03-26T06:08:06;95392.50;;;4.52;100.00
2192;BME280;1102;49.718;11.902;2023-03-26T06:10:37;95420.78;;;4.84;100.00
2192;BME280;1102;49.718;11.902;2023-03-26T06:13:05;95436.63;;;4.96;100.00
2192;BME280;1102;49.718;11.902;2023-03-26T06:15:34;95354.63;;;4.58;100.00
2192;BME280;1102;49.718;11.902;2023-03-26T06:18:13;95425.16;;;5.18;100.00
2192;BME280;1102;49.718;11.902;2023-03-26T06:21:06;95434.06;;;5.34;100.00
2192;BME280;1102;49.718;11.902;2023-03-26T06:23:42;95395.63;;;5.00;100.00
2192;BME280;1102;49.718;11.902;2023-03-26T06:26:25;95407.00;;;5.04;100.00
2192;BME280;1102;49.718;11.902;2023-03-26T06:29:18;95426.97;;;5.26;100.00
2192;BME280;1102;49.718;11.902;2023-03-26T06:32:04;95392.25;;;5.00;100.00
2192;BME280;1102;49.718;11.902;2023-03-26T06:34:50;95383.00;;;5.02;100.00
2192;BME280;1102;49.718;11.902;2023-03-26T06:37:17;95373.72;;;5.05;100.00
2192;BME280;1102;49.718;11.902;2023-03-26T06:39:55;95370.31;;;5.13;100.00
2192;BME280;1102;49.718;11.902;2023-03-26T06:42:41;95356.88;;;5.23;100.00
2192;BME280;1102;49.718;11.902;2023-03-26T06:45:52;95363.19;;;5.22;100.00
2192;BME280;1102;49.718;11.902;2023-03-26T06:48:28;95367.84;;;5.46;100.00
2192;BME280;1102;49.718;11.902;2023-03-26T06:51:12;95356.28;;;5.47;100.00
2192;BME280;1102;49.718;11.902;2023-03-26T06:53:57;95367.94;;;5.58;100.00
2192;BME280;1102;49.718;11.902;2023-03-26T06:56:41;95368.38;;;5.60;100.00
2192;BME280;1102;49.718;11.902;2023-03-26T06:59:27;95285.16;;;5.28;100.00
2192;BME280;1102;49.718;11.902;2023-03-26T07:02:12;95344.00;;;5.60;100.00
2192;BME280;1102;49.718;11.902;2023-03-26T07:04:57;95385.66;;;5.91;100.00
2192;BME280;1102;49.718;11.902;2023-03-26T07:07:43;95360.00;;;5.97;100.00
2192;BME280;1102;49.718;11.902;2023-03-26T07:10:31;95370.50;;;5.97;100.00
2192;BME280;1102;49.718;11.902;2023-03-26T07:13:17;95380.66;;;5.98;100.00
2192;BME280;1102;49.718;11.902;2023-03-26T07:16:22;95371.72;;;5.99;100.00
2192;BME280;1102;49.718;11.902;2023-03-26T07:19:12;95391.19;;;6.19;100.00
2192;BME280;1102;49.718;11.902;2023-03-26T07:21:40;95389.00;;;6.21;100.00
2192;BME280;1102;49.718;11.902;2023-03-26T07:24:42;95371.53;;;6.04;100.00
2192;BME280;1102;49.718;11.902;2023-03-26T07:33:52;95323.44;;;6.33;100.00
2192;BME280;1102;49.718;11.902;2023-03-26T07:36:49;95354.59;;;6.56;100.00
2192;BME280;1102;49.718;11.902;2023-03-26T07:40:03;95342.41;;;6.51;100.00
2192;BME280;1102;49.718;11.902;2023-03-26T07:46:12;95339.19;;;6.78;100.00
2192;BME280;1102;49.718;11.902;2023-03-26T07:49:00;95317.84;;;6.68;100.00
2192;BME280;1102;49.718;11.902;2023-03-26T07:51:56;95309.97;;;6.68;100.00
2192;BME280;1102;49.718;11.902;2023-03-26T07:54:43;95308.63;;;6.62;100.00
2192;BME280;1102;49.718;11.902;2023-03-26T08:06:18;95321.69;;;6.82;100.00
2192;BME280;1102;49.718;11.902;2023-03-26T08:09:22;95283.69;;;6.68;100.00
2192;BME280;1102;49.718;11.902;2023-03-26T08:12:54;95317.22;;;6.95;100.00
2192;BME280;1102;49.718;11.902;2023-03-26T08:15:39;95286.88;;;6.86;100.00
2192;BME280;1102;49.718;11.902;2023-03-26T08:18:21;95318.31;;;7.19;100.00
2192;BME280;1102;49.718;11.902;2023-03-26T08:20:57;95300.69;;;7.07;100.00
2192;BME280;1102;49.718;11.902;2023-03-26T08:26:50;95296.63;;;7.34;100.00
2192;BME280;1102;49.718;11.902;2023-03-26T08:32:03;95287.41;;;7.52;100.00
2192;BME280;1102;49.718;11.902;2023-03-26T08:34:31;95269.09;;;7.44;100.00
2192;BME280;1102;49.718;11.902;2023-03-26T08:36:58;95251.06;;;7.30;100.00
2192;BME280;1102;49.718;11.902;2023-03-26T08:39:24;95274.06;;;7.33;100.00
2192;BME280;1102;49.718;11.902;2023-03-26T08:50:02;95288.63;;;7.30;100.00
2192;BME280;1102;49.718;11.902;2023-03-26T09:26:43;95228.19;;;7.58;100.00
2192;BME280;1102;49.718;11.902;2023-03-26T09:32:32;95207.94;;;7.59;100.00
2192;BME280;1102;49.718;11.902;2023-03-26T09:41:16;95202.41;;;7.48;100.00
2192;BME280;1102;49.718;11.902;2023-03-26T10:00:40;95196.38;;;6.59;100.00
2192;BME280;1102;49.718;11.902;2023-03-26T10:09:04;95190.44;;;6.49;100.00
2192;BME280;1102;49.718;11.902;2023-03-26T10:12:56;95189.59;;;6.45;100.00
2192;BME280;1102;49.718;11.902;2023-03-26T10:26:26;95187.25;;;6.19;100.00
2192;BME280;1102;49.718;11.902;2023-03-26T10:40:50;95182.16;;;5.69;100.00
2192;BME280;1102;49.718;11.902;2023-03-26T10:46:07;95187.19;;;5.74;100.00
2192;BME280;1102;49.718;11.902;2023-03-26T10:51:46;95182.97;;;5.82;100.00
2192;BME280;1102;49.718;11.902;2023-03-26T11:00:15;95176.28;;;6.05;100.00
2192;BME280;1102;49.718;11.902;2023-03-26T11:05:49;95170.69;;;5.95;100.00
2192;BME280;1102;49.718;11.902;2023-03-26T11:08:26;95155.59;;;5.91;100.00
2192;BME280;1102;49.718;11.902;2023-03-26T11:19:12;95137.22;;;5.58;100.00
2192;BME280;1102;49.718;11.902;2023-03-26T11:21:45;95166.56;;;5.73;100.00
2192;BME280;1102;49.718;11.902;2023-03-26T11:24:33;95119.41;;;5.52;100.00
2192;BME280;1102;49.718;11.902;2023-03-26T11:27:06;95160.88;;;5.71;100.00
2192;BME280;1102;49.718;11.902;2023-03-26T11:29:54;95148.41;;;5.68;100.00
2192;BME280;1102;49.718;11.902;2023-03-26T11:32:39;95128.44;;;5.42;100.00
2192;BME280;1102;49.718;11.902;2023-03-26T11:35:22;95157.13;;;5.59;100.00
2192;BME280;1102;49.718;11.902;2023-03-26T11:40:43;95118.59;;;5.39;100.00
2192;BME280;1102;49.718;11.902;2023-03-26T11:43:26;95099.38;;;5.35;100.00
2192;BME280;1102;49.718;11.902;2023-03-26T11:45:55;95140.66;;;5.71;100.00
2192;BME280;1102;49.718;11.902;2023-03-26T11:48:25;95129.06;;;5.72;100.00
2192;BME280;1102;49.718;11.902;2023-03-26T11:51:15;95123.09;;;5.84;100.00
2192;BME280;1102;49.718;11.902;2023-03-26T11:53:43;95114.78;;;5.82;100.00
2192;BME280;1102;49.718;11.902;2023-03-26T11:59:03;95118.16;;;6.03;100.00
2192;BME280;1102;49.718;11.902;2023-03-26T12:04:26;95066.28;;;5.76;100.00
2192;BME280;1102;49.718;11.902;2023-03-26T12:07:06;95103.28;;;6.07;100.00
2192;BME280;1102;49.718;11.902;2023-03-26T12:09:33;95080.16;;;5.76;100.00
2192;BME280;1102;49.718;11.902;2023-03-26T12:12:02;95055.47;;;5.77;100.00
2192;BME280;1102;49.718;11.902;2023-03-26T12:14:33;95088.03;;;5.88;100.00
2192;BME280;1102;49.718;11.902;2023-03-26T12:19:34;95072.97;;;5.98;100.00
2192;BME280;1102;49.718;11.902;2023-03-26T12:22:01;95046.41;;;5.75;100.00
2192;BME280;1102;49.718;11.902;2023-03-26T12:24:31;95067.28;;;5.96;100.00
2192;BME280;1102;49.718;11.902;2023-03-26T12:27:00;95061.34;;;5.86;100.00
2192;BME280;1102;49.718;11.902;2023-03-26T12:29:29;95053.47;;;5.86;100.00
2192;BME280;1102;49.718;11.902;2023-03-26T12:32:12;95041.13;;;5.87;100.00
2192;BME280;1102;49.718;11.902;2023-03-26T12:34:39;95038.50;;;5.87;100.00
2192;BME280;1102;49.718;11.902;2023-03-26T12:37:36;95049.81;;;6.00;100.00
2192;BME280;1102;49.718;11.902;2023-03-26T12:40:28;95037.44;;;6.00;100.00
2192;BME280;1102;49.718;11.902;2023-03-26T12:42:58;95036.25;;;5.98;100.00
2192;BME280;1102;49.718;11.902;2023-03-26T12:45:49;95021.69;;;5.76;100.00
2192;BME280;1102;49.718;11.902;2023-03-26T12:48:36;95008.34;;;5.69;100.00
2192;BME280;1102;49.718;11.902;2023-03-26T12:56:29;95015.22;;;5.49;100.00
2192;BME280;1102;49.718;11.902;2023-03-26T12:59:27;94989.31;;;5.47;100.00
2192;BME280;1102;49.718;11.902;2023-03-26T13:04:57;94992.28;;;5.70;100.00
2192;BME280;1102;49.718;11.902;2023-03-26T13:10:36;95000.72;;;5.63;100.00
2192;BME280;1102;49.718;11.902;2023-03-26T13:16:47;94991.63;;;5.73;100.00
2192;BME280;1102;49.718;11.902;2023-03-26T13:27:58;94984.03;;;6.05;100.00
2192;BME280;1102;49.718;11.902;2023-03-26T13:30:35;94984.47;;;5.95;100.00
2192;BME280;1102;49.718;11.902;2023-03-26T13:33:25;94955.25;;;6.08;100.00
2192;BME280;1102;49.718;11.902;2023-03-26T13:39:07;94956.28;;;6.72;100.00
2192;BME280;1102;49.718;11.902;2023-03-26T13:41:45;94974.19;;;7.26;100.00
2192;BME280;1102;49.718;11.902;2023-03-26T13:46:48;94936.84;;;7.20;100.00
2192;BME280;1102;49.718;11.902;2023-03-26T13:49:30;94959.94;;;7.27;100.00
2192;BME280;1102;49.718;11.902;2023-03-26T13:53:02;94950.94;;;7.12;100.00
2192;BME280;1102;49.718;11.902;2023-03-26T13:55:20;94950.66;;;7.01;100.00
2192;BME280;1102;49.718;11.902;2023-03-26T13:58:20;94951.50;;;6.90;100.00
2192;BME280;1102;49.718;11.902;2023-03-26T14:01:18;94945.31;;;6.82;100.00
2192;BME280;1102;49.718;11.902;2023-03-26T14:09:51;94904.75;;;6.95;100.00
2192;BME280;1102;49.718;11.902;2023-03-26T14:15:10;94942.34;;;8.68;100.00
2192;BME280;1102;49.718;11.902;2023-03-26T14:17:39;94944.53;;;10.22;100.00
2192;BME280;1102;49.718;11.902;2023-03-26T14:31:38;94916.22;;;8.78;100.00
2192;BME280;1102;49.718;11.902;2023-03-26T14:37:19;94926.84;;;8.43;100.00
2192;BME280;1102;49.718;11.902;2023-03-26T14:49:08;94908.44;;;8.43;100.00
2192;BME280;1102;49.718;11.902;2023-03-26T14:52:39;94918.50;;;8.22;100.00
2192;BME280;1102;49.718;11.902;2023-03-26T14:54:49;94887.91;;;7.98;100.00
2192;BME280;1102;49.718;11.902;2023-03-26T15:13:48;94889.03;;;7.97;100.00
2192;BME280;1102;49.718;11.902;2023-03-26T15:33:43;94878.75;;;9.34;100.00
2192;BME280;1102;49.718;11.902;2023-03-26T15:44:53;94902.75;;;11.46;100.00
2192;BME280;1102;49.718;11.902;2023-03-26T16:04:23;94873.25;;;8.16;100.00
2192;BME280;1102;49.718;11.902;2023-03-26T16:06:58;94887.53;;;8.15;100.00
2192;BME280;1102;49.718;11.902;2023-03-26T16:09:50;94892.28;;;8.10;100.00
2192;BME280;1102;49.718;11.902;2023-03-26T16:12:30;94889.66;;;8.10;100.00
2192;BME280;1102;49.718;11.902;2023-03-26T16:21:02;94898.44;;;7.98;100.00
2192;BME280;1102;49.718;11.902;2023-03-26T16:26:34;94896.03;;;8.09;100.00
2192;BME280;1102;49.718;11.902;2023-03-26T16:29:23;94871.38;;;8.17;100.00
2192;BME280;1102;49.718;11.902;2023-03-26T16:34:41;94891.78;;;8.39;100.00
2192;BME280;1102;49.718;11.902;2023-03-26T16:37:40;94894.19;;;8.28;100.00
2192;BME280;1102;49.718;11.902;2023-03-26T16:46:04;94891.94;;;8.11;100.00
2192;BME280;1102;49.718;11.902;2023-03-26T16:57:17;94891.03;;;7.68;100.00
2192;BME280;1102;49.718;11.902;2023-03-26T17:05:24;94885.22;;;7.44;100.00
2192;BME280;1102;49.718;11.902;2023-03-26T17:08:26;94888.47;;;7.37;100.00
2192;BME280;1102;49.718;11.902;2023-03-26T17:11:20;94904.31;;;7.40;100.00
2192;BME280;1102;49.718;11.902;2023-03-26T17:16:47;94870.47;;;6.92;100.00
2192;BME280;1102;49.718;11.902;2023-03-26T17:22:04;94898.13;;;7.01;100.00
2192;BME280;1102;49.718;11.902;2023-03-26T17:32:53;94893.22;;;6.56;100.00
2192;BME280;1102;49.718;11.902;2023-03-26T17:35:42;94896.03;;;6.35;100.00
2192;BME280;1102;49.718;11.902;2023-03-26T17:40:46;94877.72;;;6.23;100.00
2192;BME280;1102;49.718;11.902;2023-03-26T17:43:46;94899.47;;;6.23;100.00
2192;BME280;1102;49.718;11.902;2023-03-26T17:48:57;94905.13;;;6.26;100.00
2192;BME280;1102;49.718;11.902;2023-03-26T17:51:34;94898.34;;;6.25;100.00
2192;BME280;1102;49.718;11.902;2023-03-26T17:54:40;94894.94;;;5.96;100.00
2192;BME280;1102;49.718;11.902;2023-03-26T17:57:26;94887.66;;;5.65;100.00
2192;BME280;1102;49.718;11.902;2023-03-26T17:59:58;94863.13;;;5.21;100.00
2192;BME280;1102;49.718;11.902;2023-03-26T18:02:40;94882.66;;;5.36;100.00
2192;BME280;1102;49.718;11.902;2023-03-26T18:05:11;94878.38;;;5.43;100.00
2192;BME280;1102;49.718;11.902;2023-03-26T18:08:03;94888.00;;;5.51;100.00
2192;BME280;1102;49.718;11.902;2023-03-26T18:11:24;94887.88;;;5.60;100.00
2192;BME280;1102;49.718;11.902;2023-03-26T18:19:06;94881.75;;;5.68;100.00
2192;BME280;1102;49.718;11.902;2023-03-26T18:21:45;94879.56;;;5.58;100.00
2192;BME280;1102;49.718;11.902;2023-03-26T18:27:04;94878.19;;;5.36;100.00
2192;BME280;1102;49.718;11.902;2023-03-26T18:29:33;94878.81;;;5.33;100.00
2192;BME280;1102;49.718;11.902;2023-03-26T18:34:46;94877.28;;;5.20;100.00
2192;BME280;1102;49.718;11.902;2023-03-26T18:37:22;94879.03;;;5.28;100.00
2192;BME280;1102;49.718;11.902;2023-03-26T18:39:59;94875.22;;;5.13;100.00
2192;BME280;1102;49.718;11.902;2023-03-26T18:42:29;94858.84;;;5.04;100.00
2192;BME280;1102;49.718;11.902;2023-03-26T18:48:02;94856.44;;;4.87;100.00
2192;BME280;1102;49.718;11.902;2023-03-26T18:50:36;94805.34;;;4.56;100.00
2192;BME280;1102;49.718;11.902;2023-03-26T18:53:05;94844.72;;;4.72;100.00
2192;BME280;1102;49.718;11.902;2023-03-26T18:55:37;94846.19;;;4.82;100.00
2192;BME280;1102;49.718;11.902;2023-03-26T19:00:47;94810.47;;;4.65;100.00
2192;BME280;1102;49.718;11.902;2023-03-26T19:03:19;94834.94;;;4.81;100.00
2192;BME280;1102;49.718;11.902;2023-03-26T19:05:49;94743.69;;;4.22;100.00
2192;BME280;1102;49.718;11.902;2023-03-26T19:08:17;94842.69;;;4.90;100.00
2192;BME280;1102;49.718;11.902;2023-03-26T19:10:50;94816.13;;;4.67;100.00
2192;BME280;1102;49.718;11.902;2023-03-26T19:13:19;94807.81;;;4.53;100.00
2192;BME280;1102;49.718;11.902;2023-03-26T19:15:57;94837.00;;;5.00;100.00
2192;BME280;1102;49.718;11.902;2023-03-26T19:18:26;94790.28;;;4.41;100.00
2192;BME280;1102;49.718;11.902;2023-03-26T19:21:05;94785.00;;;3.96;100.00
2192;BME280;1102;49.718;11.902;2023-03-26T19:23:38;94847.84;;;4.53;100.00
2192;BME280;1102;49.718;11.902;2023-03-26T19:26:08;94855.94;;;4.60;100.00
2192;BME280;1102;49.718;11.902;2023-03-26T19:28:42;94853.97;;;4.57;100.00
2192;BME280;1102;49.718;11.902;2023-03-26T19:33:42;94823.44;;;4.61;100.00
2192;BME280;1102;49.718;11.902;2023-03-26T19:38:50;94827.47;;;4.59;100.00
2192;BME280;1102;49.718;11.902;2023-03-26T19:41:34;94849.28;;;4.63;100.00
2192;BME280;1102;49.718;11.902;2023-03-26T19:46:43;94857.44;;;4.49;100.00
2192;BME280;1102;49.718;11.902;2023-03-26T19:49:40;94856.34;;;4.50;100.00
2192;BME280;1102;49.718;11.902;2023-03-26T19:52:17;94817.19;;;4.08;100.00
2192;BME280;1102;49.718;11.902;2023-03-26T19:57:29;94851.06;;;4.38;100.00
2192;BME280;1102;49.718;11.902;2023-03-26T19:59:58;94772.50;;;3.68;100.00
2192;BME280;1102;49.718;11.902;2023-03-26T20:02:25;94767.59;;;3.67;100.00
2192;BME280;1102;49.718;11.902;2023-03-26T20:04:53;94811.88;;;3.84;100.00
2192;BME280;1102;49.718;11.902;2023-03-26T20:07:22;94780.00;;;3.70;100.00
2192;BME280;1102;49.718;11.902;2023-03-26T20:10:03;94798.16;;;3.87;100.00
2192;BME280;1102;49.718;11.902;2023-03-26T20:12:31;94738.84;;;3.67;100.00
2192;BME280;1102;49.718;11.902;2023-03-26T20:14:59;94787.69;;;3.87;100.00